sensor_id;sensor_type;location;lat;lon;timestamp;temperature;humidity
17740;DHT22;8990;33.226;-97.150;2023-10-31T00:00:44;9.00;99.90
17740;DHT22;8990;33.226;-97.150;2023-10-31T00:03:13;8.90;99.90
17740;DHT22;8990;33.226;-97.150;2023-10-31T00:05:42;8.90;99.90
17740;DHT22;8990;33.226;-97.150;2023-10-31T00:08:11;8.90;99.90
17740;DHT22;8990;33.226;-97.150;2023-10-31T00:10:40;8.90;99.90
17740;DHT22;8990;33.226;-97.150;2023-10-31T00:13:11;8.90;99.90
17740;DHT22;8990;33.226;-97.150;2023-10-31T00:15:42;9.20;99.90
17740;DHT22;8990;33.226;-97.150;2023-10-31T00:18:10;8.90;99.90
17740;DHT22;8990;33.226;-97.150;2023-10-31T00:20:40;8.80;99.90
17740;DHT22;8990;33.226;-97.150;2023-10-31T00:23:09;8.80;99.90
17740;DHT22;8990;33.226;-97.150;2023-10-31T00:25:38;8.80;99.90
17740;DHT22;8990;33.226;-97.150;2023-10-31T00:28:07;8.90;99.90
17740;DHT22;8990;33.226;-97.150;2023-10-31T00:30:35;8.80;99.90
17740;DHT22;8990;33.226;-97.150;2023-10-31T00:33:06;8.80;99.90
17740;DHT22;8990;33.226;-97.150;2023-10-31T00:35:35;8.90;99.90
17740;DHT22;8990;33.226;-97.150;2023-10-31T00:38:04;8.70;99.90
17740;DHT22;8990;33.226;-97.150;2023-10-31T00:40:33;8.90;99.90
17740;DHT22;8990;33.226;-97.150;2023-10-31T00:43:02;8.80;99.90
17740;DHT22;8990;33.226;-97.150;2023-10-31T00:45:32;8.80;99.90
17740;DHT22;8990;33.226;-97.150;2023-10-31T00:48:00;8.70;99.90
17740;DHT22;8990;33.226;-97.150;2023-10-31T00:50:31;8.70;99.90
17740;DHT22;8990;33.226;-97.150;2023-10-31T00:53:00;8.70;99.90
17740;DHT22;8990;33.226;-97.150;2023-10-31T00:55:29;8.60;99.90
17740;DHT22;8990;33.226;-97.150;2023-10-31T00:57:58;8.60;99.90
17740;DHT22;8990;33.226;-97.150;2023-10-31T01:00:27;8.70;99.90
17740;DHT22;8990;33.226;-97.150;2023-10-31T01:02:56;8.50;99.90
17740;DHT22;8990;33.226;-97.150;2023-10-31T01:05:24;8.60;99.90
17740;DHT22;8990;33.226;-97.150;2023-10-31T01:07:55;8.50;99.90
17740;DHT22;8990;33.226;-97.150;2023-10-31T01:10:24;8.60;99.90
17740;DHT22;8990;33.226;-97.150;2023-10-31T01:12:53;8.50;99.90
17740;DHT22;8990;33.226;-97.150;2023-10-31T01:15:22;8.50;99.90
17740;DHT22;8990;33.226;-97.150;2023-10-31T01:17:52;8.40;99.90
17740;DHT22;8990;33.226;-97.150;2023-10-31T01:20:21;8.30;99.90
17740;DHT22;8990;33.226;-97.150;2023-10-31T01:22:50;8.30;99.90
17740;DHT22;8990;33.226;-97.150;2023-10-31T01:25:21;8.30;99.90
17740;DHT22;8990;33.226;-97.150;2023-10-31T01:27:49;8.20;99.90
17740;DHT22;8990;33.226;-97.150;2023-10-31T01:30:18;8.20;99.90
17740;DHT22;8990;33.226;-97.150;2023-10-31T01:32:47;8.20;99.90
17740;DHT22;8990;33.226;-97.150;2023-10-31T01:35:16;8.10;99.90
17740;DHT22;8990;33.226;-97.150;2023-10-31T01:37:46;8.00;99.90
17740;DHT22;8990;33.226;-97.150;2023-10-31T01:40:15;8.00;99.90
17740;DHT22;8990;33.226;-97.150;2023-10-31T01:42:46;8.00;99.90
17740;DHT22;8990;33.226;-97.150;2023-10-31T01:45:15;7.80;99.90
17740;DHT22;8990;33.226;-97.150;2023-10-31T01:47:46;7.80;99.90
17740;DHT22;8990;33.226;-97.150;2023-10-31T01:50:17;7.80;99.90
17740;DHT22;8990;33.226;-97.150;2023-10-31T01:52:47;7.70;99.90
17740;DHT22;8990;33.226;-97.150;2023-10-31T01:55:16;7.70;99.90
17740;DHT22;8990;33.226;-97.150;2023-10-31T01:57:47;7.80;99.90
17740;DHT22;8990;33.226;-97.150;2023-10-31T02:00:17;7.80;99.90
17740;DHT22;8990;33.226;-97.150;2023-10-31T02:02:46;7.70;99.90
17740;DHT22;8990;33.226;-97.150;2023-10-31T02:05:16;7.60;99.90
17740;DHT22;8990;33.226;-97.150;2023-10-31T02:07:46;7.50;99.90
17740;DHT22;8990;33.226;-97.150;2023-10-31T02:10:15;7.60;99.90
17740;DHT22;8990;33.226;-97.150;2023-10-31T02:12:44;7.60;99.90
17740;DHT22;8990;33.226;-97.150;2023-10-31T02:15:14;7.70;99.90
17740;DHT22;8990;33.226;-97.150;2023-10-31T02:17:43;7.40;99.90
17740;DHT22;8990;33.226;-97.150;2023-10-31T02:20:12;7.60;99.90
17740;DHT22;8990;33.226;-97.150;2023-10-31T02:22:43;7.60;99.90
17740;DHT22;8990;33.226;-97.150;2023-10-31T02:25:18;7.60;99.90
17740;DHT22;8990;33.226;-97.150;2023-10-31T02:27:48;7.60;99.90
17740;DHT22;8990;33.226;-97.150;2023-10-31T02:30:17;7.60;99.90
17740;DHT22;8990;33.226;-97.150;2023-10-31T02:32:46;7.50;99.90
17740;DHT22;8990;33.226;-97.150;2023-10-31T02:35:16;7.50;99.90
17740;DHT22;8990;33.226;-97.150;2023-10-31T02:37:47;7.60;99.90
17740;DHT22;8990;33.226;-97.150;2023-10-31T02:40:16;7.50;99.90
17740;DHT22;8990;33.226;-97.150;2023-10-31T02:42:45;7.50;99.90
17740;DHT22;8990;33.226;-97.150;2023-10-31T02:45:15;7.50;99.90
17740;DHT22;8990;33.226;-97.150;2023-10-31T02:47:43;7.50;99.90
17740;DHT22;8990;33.226;-97.150;2023-10-31T02:50:13;7.50;99.90
17740;DHT22;8990;33.226;-97.150;2023-10-31T02:52:41;7.40;99.90
17740;DHT22;8990;33.226;-97.150;2023-10-31T02:55:12;7.50;99.90
17740;DHT22;8990;33.226;-97.150;2023-10-31T02:57:42;7.50;99.90
17740;DHT22;8990;33.226;-97.150;2023-10-31T03:00:12;7.30;99.90
17740;DHT22;8990;33.226;-97.150;2023-10-31T03:02:41;7.40;99.90
17740;DHT22;8990;33.226;-97.150;2023-10-31T03:05:10;7.40;99.90
17740;DHT22;8990;33.226;-97.150;2023-10-31T03:07:39;7.30;99.90
17740;DHT22;8990;33.226;-97.150;2023-10-31T03:10:08;7.40;99.90
17740;DHT22;8990;33.226;-97.150;2023-10-31T03:12:39;7.20;99.90
17740;DHT22;8990;33.226;-97.150;2023-10-31T03:15:08;7.20;99.90
17740;DHT22;8990;33.226;-97.150;2023-10-31T03:17:38;7.20;99.90
17740;DHT22;8990;33.226;-97.150;2023-10-31T03:20:08;7.30;99.90
17740;DHT22;8990;33.226;-97.150;2023-10-31T03:22:37;7.20;99.90
17740;DHT22;8990;33.226;-97.150;2023-10-31T03:25:07;7.10;99.90
17740;DHT22;8990;33.226;-97.150;2023-10-31T03:27:36;7.00;99.90
17740;DHT22;8990;33.226;-97.150;2023-10-31T03:30:07;6.90;99.90
17740;DHT22;8990;33.226;-97.150;2023-10-31T03:32:36;7.00;99.90
17740;DHT22;8990;33.226;-97.150;2023-10-31T03:35:06;7.00;99.90
17740;DHT22;8990;33.226;-97.150;2023-10-31T03:37:35;6.90;99.90
17740;DHT22;8990;33.226;-97.150;2023-10-31T03:40:08;6.90;99.90
17740;DHT22;8990;33.226;-97.150;2023-10-31T03:42:37;6.80;99.90
17740;DHT22;8990;33.226;-97.150;2023-10-31T03:45:09;6.90;99.90
17740;DHT22;8990;33.226;-97.150;2023-10-31T03:47:38;6.70;99.90
17740;DHT22;8990;33.226;-97.150;2023-10-31T03:50:08;6.70;99.90
17740;DHT22;8990;33.226;-97.150;2023-10-31T03:52:37;6.70;99.90
17740;DHT22;8990;33.226;-97.150;2023-10-31T03:55:07;6.60;99.90
17740;DHT22;8990;33.226;-97.150;2023-10-31T03:57:36;6.40;99.90
17740;DHT22;8990;33.226;-97.150;2023-10-31T04:00:08;6.40;99.90
17740;DHT22;8990;33.226;-97.150;2023-10-31T04:02:44;6.20;99.90
17740;DHT22;8990;33.226;-97.150;2023-10-31T04:05:14;6.30;99.90
17740;DHT22;8990;33.226;-97.150;2023-10-31T04:07:43;6.30;99.90
17740;DHT22;8990;33.226;-97.150;2023-10-31T04:10:11;6.30;99.90
17740;DHT22;8990;33.226;-97.150;2023-10-31T04:12:41;6.20;99.90
17740;DHT22;8990;33.226;-97.150;2023-10-31T04:15:12;6.10;99.90
17740;DHT22;8990;33.226;-97.150;2023-10-31T04:17:41;6.10;99.90
17740;DHT22;8990;33.226;-97.150;2023-10-31T04:20:11;6.10;99.90
17740;DHT22;8990;33.226;-97.150;2023-10-31T04:22:40;6.10;99.90
17740;DHT22;8990;33.226;-97.150;2023-10-31T04:25:09;6.10;99.90
17740;DHT22;8990;33.226;-97.150;2023-10-31T04:27:38;6.00;99.90
17740;DHT22;8990;33.226;-97.150;2023-10-31T04:30:07;6.10;99.90
17740;DHT22;8990;33.226;-97.150;2023-10-31T04:32:38;6.10;99.90
17740;DHT22;8990;33.226;-97.150;2023-10-31T04:35:07;5.90;99.90
17740;DHT22;8990;33.226;-97.150;2023-10-31T04:37:36;6.00;99.90
17740;DHT22;8990;33.226;-97.150;2023-10-31T04:40:06;5.90;99.90
17740;DHT22;8990;33.226;-97.150;2023-10-31T04:42:35;5.90;99.90
17740;DHT22;8990;33.226;-97.150;2023-10-31T04:45:04;5.70;99.90
17740;DHT22;8990;33.226;-97.150;2023-10-31T04:47:33;5.90;99.90
17740;DHT22;8990;33.226;-97.150;2023-10-31T04:50:04;5.80;99.90
17740;DHT22;8990;33.226;-97.150;2023-10-31T04:52:33;5.80;99.90
17740;DHT22;8990;33.226;-97.150;2023-10-31T04:55:02;5.80;99.90
17740;DHT22;8990;33.226;-97.150;2023-10-31T04:57:31;5.70;99.90
17740;DHT22;8990;33.226;-97.150;2023-10-31T05:00:00;5.80;99.90
17740;DHT22;8990;33.226;-97.150;2023-10-31T05:02:30;5.70;99.90
17740;DHT22;8990;33.226;-97.150;2023-10-31T05:04:58;5.70;99.90
17740;DHT22;8990;33.226;-97.150;2023-10-31T05:07:29;5.80;99.90
17740;DHT22;8990;33.226;-97.150;2023-10-31T05:09:59;5.80;99.90
17740;DHT22;8990;33.226;-97.150;2023-10-31T05:12:28;5.70;99.90
17740;DHT22;8990;33.226;-97.150;2023-10-31T05:14:57;5.80;99.90
17740;DHT22;8990;33.226;-97.150;2023-10-31T05:17:25;5.60;99.90
17740;DHT22;8990;33.226;-97.150;2023-10-31T05:19:54;5.60;99.90
17740;DHT22;8990;33.226;-97.150;2023-10-31T05:22:23;5.50;99.90
17740;DHT22;8990;33.226;-97.150;2023-10-31T05:24:53;5.50;99.90
17740;DHT22;8990;33.226;-97.150;2023-10-31T05:27:22;5.60;99.90
17740;DHT22;8990;33.226;-97.150;2023-10-31T05:29:51;5.50;99.90
17740;DHT22;8990;33.226;-97.150;2023-10-31T05:32:20;5.40;99.90
17740;DHT22;8990;33.226;-97.150;2023-10-31T05:34:49;5.40;99.90
17740;DHT22;8990;33.226;-97.150;2023-10-31T05:37:18;5.30;99.90
17740;DHT22;8990;33.226;-97.150;2023-10-31T05:39:47;5.30;99.90
17740;DHT22;8990;33.226;-97.150;2023-10-31T05:42:17;5.40;99.90
17740;DHT22;8990;33.226;-97.150;2023-10-31T05:44:47;5.30;99.90
17740;DHT22;8990;33.226;-97.150;2023-10-31T05:47:16;5.30;99.90
17740;DHT22;8990;33.226;-97.150;2023-10-31T05:49:46;5.30;99.90
17740;DHT22;8990;33.226;-97.150;2023-10-31T05:52:16;5.30;99.90
17740;DHT22;8990;33.226;-97.150;2023-10-31T05:54:45;5.20;99.90
17740;DHT22;8990;33.226;-97.150;2023-10-31T05:57:14;5.20;99.90
17740;DHT22;8990;33.226;-97.150;2023-10-31T05:59:44;5.00;99.90
17740;DHT22;8990;33.226;-97.150;2023-10-31T06:02:14;5.10;99.90
17740;DHT22;8990;33.226;-97.150;2023-10-31T06:04:42;4.90;99.90
17740;DHT22;8990;33.226;-97.150;2023-10-31T06:07:11;5.00;99.90
17740;DHT22;8990;33.226;-97.150;2023-10-31T06:09:41;4.90;99.90
17740;DHT22;8990;33.226;-97.150;2023-10-31T06:12:10;5.00;99.90
17740;DHT22;8990;33.226;-97.150;2023-10-31T06:14:39;5.00;99.90
17740;DHT22;8990;33.226;-97.150;2023-10-31T06:17:09;4.90;99.90
17740;DHT22;8990;33.226;-97.150;2023-10-31T06:19:38;5.00;99.90
17740;DHT22;8990;33.226;-97.150;2023-10-31T06:22:12;4.90;99.90
17740;DHT22;8990;33.226;-97.150;2023-10-31T06:24:40;4.90;99.90
17740;DHT22;8990;33.226;-97.150;2023-10-31T06:27:10;4.80;99.90
17740;DHT22;8990;33.226;-97.150;2023-10-31T06:29:39;4.70;99.90
17740;DHT22;8990;33.226;-97.150;2023-10-31T06:32:09;4.80;99.90
17740;DHT22;8990;33.226;-97.150;2023-10-31T06:34:38;4.80;99.90
17740;DHT22;8990;33.226;-97.150;2023-10-31T06:37:07;4.70;99.90
17740;DHT22;8990;33.226;-97.150;2023-10-31T06:39:36;4.60;99.90
17740;DHT22;8990;33.226;-97.150;2023-10-31T06:42:05;4.70;99.90
17740;DHT22;8990;33.226;-97.150;2023-10-31T06:44:34;4.70;99.90
17740;DHT22;8990;33.226;-97.150;2023-10-31T06:47:03;4.70;99.90
17740;DHT22;8990;33.226;-97.150;2023-10-31T06:49:34;4.60;99.90
17740;DHT22;8990;33.226;-97.150;2023-10-31T06:52:04;4.70;99.90
17740;DHT22;8990;33.226;-97.150;2023-10-31T06:54:33;4.50;99.90
17740;DHT22;8990;33.226;-97.150;2023-10-31T06:57:02;4.50;99.90
17740;DHT22;8990;33.226;-97.150;2023-10-31T06:59:31;4.50;99.90
17740;DHT22;8990;33.226;-97.150;2023-10-31T07:02:00;4.50;99.90
17740;DHT22;8990;33.226;-97.150;2023-10-31T07:04:29;4.50;99.90
17740;DHT22;8990;33.226;-97.150;2023-10-31T07:07:00;4.50;99.90
17740;DHT22;8990;33.226;-97.150;2023-10-31T07:09:29;4.50;99.90
17740;DHT22;8990;33.226;-97.150;2023-10-31T07:11:57;4.50;99.90
17740;DHT22;8990;33.226;-97.150;2023-10-31T07:14:26;4.40;99.90
17740;DHT22;8990;33.226;-97.150;2023-10-31T07:16:57;4.40;99.90
17740;DHT22;8990;33.226;-97.150;2023-10-31T07:19:26;4.40;99.90
17740;DHT22;8990;33.226;-97.150;2023-10-31T07:21:54;4.40;99.90
17740;DHT22;8990;33.226;-97.150;2023-10-31T07:24:25;4.30;99.90
17740;DHT22;8990;33.226;-97.150;2023-10-31T07:26:55;4.30;99.90
17740;DHT22;8990;33.226;-97.150;2023-10-31T07:29:23;4.30;99.90
17740;DHT22;8990;33.226;-97.150;2023-10-31T07:31:52;4.30;99.90
17740;DHT22;8990;33.226;-97.150;2023-10-31T07:34:21;4.20;99.90
17740;DHT22;8990;33.226;-97.150;2023-10-31T07:36:50;4.30;99.90
17740;DHT22;8990;33.226;-97.150;2023-10-31T07:39:20;4.10;99.90
17740;DHT22;8990;33.226;-97.150;2023-10-31T07:41:51;4.20;99.90
17740;DHT22;8990;33.226;-97.150;2023-10-31T07:44:20;4.10;99.90
17740;DHT22;8990;33.226;-97.150;2023-10-31T07:46:49;4.10;99.90
17740;DHT22;8990;33.226;-97.150;2023-10-31T07:49:17;4.00;99.90
17740;DHT22;8990;33.226;-97.150;2023-10-31T07:51:47;4.00;99.90
17740;DHT22;8990;33.226;-97.150;2023-10-31T07:54:16;4.10;99.90
17740;DHT22;8990;33.226;-97.150;2023-10-31T07:56:45;4.00;99.90
17740;DHT22;8990;33.226;-97.150;2023-10-31T07:59:16;4.00;99.90
17740;DHT22;8990;33.226;-97.150;2023-10-31T08:01:46;3.90;99.90
17740;DHT22;8990;33.226;-97.150;2023-10-31T08:04:15;4.00;99.90
17740;DHT22;8990;33.226;-97.150;2023-10-31T08:06:44;3.90;99.90
17740;DHT22;8990;33.226;-97.150;2023-10-31T08:09:13;3.80;99.90
17740;DHT22;8990;33.226;-97.150;2023-10-31T08:11:43;3.90;99.90
17740;DHT22;8990;33.226;-97.150;2023-10-31T08:14:12;3.80;99.90
17740;DHT22;8990;33.226;-97.150;2023-10-31T08:16:44;3.80;99.90
17740;DHT22;8990;33.226;-97.150;2023-10-31T08:19:13;3.80;99.90
17740;DHT22;8990;33.226;-97.150;2023-10-31T08:21:42;3.80;99.90
17740;DHT22;8990;33.226;-97.150;2023-10-31T08:24:11;3.80;99.90
17740;DHT22;8990;33.226;-97.150;2023-10-31T08:26:40;3.80;99.90
17740;DHT22;8990;33.226;-97.150;2023-10-31T08:29:09;3.80;99.90
17740;DHT22;8990;33.226;-97.150;2023-10-31T08:31:38;3.80;99.90
17740;DHT22;8990;33.226;-97.150;2023-10-31T08:34:09;3.70;99.90
17740;DHT22;8990;33.226;-97.150;2023-10-31T08:36:37;3.70;99.90
17740;DHT22;8990;33.226;-97.150;2023-10-31T08:39:06;3.70;99.90
17740;DHT22;8990;33.226;-97.150;2023-10-31T08:41:35;3.60;99.90
17740;DHT22;8990;33.226;-97.150;2023-10-31T08:44:06;3.40;99.90
17740;DHT22;8990;33.226;-97.150;2023-10-31T08:46:35;3.30;99.90
17740;DHT22;8990;33.226;-97.150;2023-10-31T08:49:04;3.20;99.90
17740;DHT22;8990;33.226;-97.150;2023-10-31T08:51:34;3.50;99.90
17740;DHT22;8990;33.226;-97.150;2023-10-31T08:54:04;3.30;99.90
17740;DHT22;8990;33.226;-97.150;2023-10-31T08:56:33;3.30;99.90
17740;DHT22;8990;33.226;-97.150;2023-10-31T08:59:02;3.10;99.90
17740;DHT22;8990;33.226;-97.150;2023-10-31T09:01:31;3.00;99.90
17740;DHT22;8990;33.226;-97.150;2023-10-31T09:04:00;3.20;99.90
17740;DHT22;8990;33.226;-97.150;2023-10-31T09:06:29;3.20;99.90
17740;DHT22;8990;33.226;-97.150;2023-10-31T09:09:00;3.00;99.90
17740;DHT22;8990;33.226;-97.150;2023-10-31T09:11:30;3.00;99.90
17740;DHT22;8990;33.226;-97.150;2023-10-31T09:13:59;3.20;99.90
17740;DHT22;8990;33.226;-97.150;2023-10-31T09:16:28;3.10;99.90
17740;DHT22;8990;33.226;-97.150;2023-10-31T09:18:57;3.00;99.90
17740;DHT22;8990;33.226;-97.150;2023-10-31T09:21:26;3.10;99.90
17740;DHT22;8990;33.226;-97.150;2023-10-31T09:23:55;3.10;99.90
17740;DHT22;8990;33.226;-97.150;2023-10-31T09:26:25;3.00;99.90
17740;DHT22;8990;33.226;-97.150;2023-10-31T09:28:54;2.80;99.90
17740;DHT22;8990;33.226;-97.150;2023-10-31T09:31:23;2.90;99.90
17740;DHT22;8990;33.226;-97.150;2023-10-31T09:33:52;2.90;99.90
17740;DHT22;8990;33.226;-97.150;2023-10-31T09:36:21;2.70;99.90
17740;DHT22;8990;33.226;-97.150;2023-10-31T09:38:51;2.60;99.90
17740;DHT22;8990;33.226;-97.150;2023-10-31T09:41:20;2.60;99.90
17740;DHT22;8990;33.226;-97.150;2023-10-31T09:43:50;2.90;99.90
17740;DHT22;8990;33.226;-97.150;2023-10-31T09:46:19;2.60;99.90
17740;DHT22;8990;33.226;-97.150;2023-10-31T09:48:49;2.90;99.90
17740;DHT22;8990;33.226;-97.150;2023-10-31T09:51:18;2.70;99.90
17740;DHT22;8990;33.226;-97.150;2023-10-31T09:53:48;2.60;99.90
17740;DHT22;8990;33.226;-97.150;2023-10-31T09:56:17;2.80;99.90
17740;DHT22;8990;33.226;-97.150;2023-10-31T09:58:49;2.60;99.90
17740;DHT22;8990;33.226;-97.150;2023-10-31T10:01:18;2.90;99.90
17740;DHT22;8990;33.226;-97.150;2023-10-31T10:03:46;2.80;99.90
17740;DHT22;8990;33.226;-97.150;2023-10-31T10:06:15;2.80;99.90
17740;DHT22;8990;33.226;-97.150;2023-10-31T10:08:48;2.90;99.90
17740;DHT22;8990;33.226;-97.150;2023-10-31T10:11:17;2.80;99.90
17740;DHT22;8990;33.226;-97.150;2023-10-31T10:13:46;2.60;99.90
17740;DHT22;8990;33.226;-97.150;2023-10-31T10:16:28;2.80;99.90
17740;DHT22;8990;33.226;-97.150;2023-10-31T10:19:15;2.80;99.90
17740;DHT22;8990;33.226;-97.150;2023-10-31T10:21:50;2.80;99.90
17740;DHT22;8990;33.226;-97.150;2023-10-31T10:24:20;2.50;99.90
17740;DHT22;8990;33.226;-97.150;2023-10-31T10:26:49;2.70;99.90
17740;DHT22;8990;33.226;-97.150;2023-10-31T10:29:18;2.40;99.90
17740;DHT22;8990;33.226;-97.150;2023-10-31T10:31:49;2.70;99.90
17740;DHT22;8990;33.226;-97.150;2023-10-31T10:34:18;2.70;99.90
17740;DHT22;8990;33.226;-97.150;2023-10-31T10:36:48;2.30;99.90
17740;DHT22;8990;33.226;-97.150;2023-10-31T10:39:20;2.60;99.90
17740;DHT22;8990;33.226;-97.150;2023-10-31T10:41:53;2.60;99.90
17740;DHT22;8990;33.226;-97.150;2023-10-31T10:44:35;2.60;99.90
17740;DHT22;8990;33.226;-97.150;2023-10-31T10:47:07;2.40;99.90
17740;DHT22;8990;33.226;-97.150;2023-10-31T10:49:37;2.80;99.90
17740;DHT22;8990;33.226;-97.150;2023-10-31T10:52:16;2.60;99.90
17740;DHT22;8990;33.226;-97.150;2023-10-31T10:54:52;2.70;99.90
17740;DHT22;8990;33.226;-97.150;2023-10-31T10:57:35;2.70;99.90
17740;DHT22;8990;33.226;-97.150;2023-10-31T11:00:06;2.60;99.90
17740;DHT22;8990;33.226;-97.150;2023-10-31T11:02:41;2.50;99.90
17740;DHT22;8990;33.226;-97.150;2023-10-31T11:05:13;2.30;99.90
17740;DHT22;8990;33.226;-97.150;2023-10-31T11:07:43;2.40;99.90
17740;DHT22;8990;33.226;-97.150;2023-10-31T11:10:12;2.50;99.90
17740;DHT22;8990;33.226;-97.150;2023-10-31T11:12:41;2.30;99.90
17740;DHT22;8990;33.226;-97.150;2023-10-31T11:15:12;2.30;99.90
17740;DHT22;8990;33.226;-97.150;2023-10-31T11:17:46;2.20;99.90
17740;DHT22;8990;33.226;-97.150;2023-10-31T11:20:17;2.60;99.90
17740;DHT22;8990;33.226;-97.150;2023-10-31T11:22:47;2.40;99.90
17740;DHT22;8990;33.226;-97.150;2023-10-31T11:25:19;2.20;99.90
17740;DHT22;8990;33.226;-97.150;2023-10-31T11:27:50;2.30;99.90
17740;DHT22;8990;33.226;-97.150;2023-10-31T11:30:27;2.30;99.90
17740;DHT22;8990;33.226;-97.150;2023-10-31T11:32:58;2.20;99.90
17740;DHT22;8990;33.226;-97.150;2023-10-31T11:35:30;2.10;99.90
17740;DHT22;8990;33.226;-97.150;2023-10-31T11:38:03;2.40;99.90
17740;DHT22;8990;33.226;-97.150;2023-10-31T11:40:37;2.10;99.90
17740;DHT22;8990;33.226;-97.150;2023-10-31T11:43:06;2.10;99.90
17740;DHT22;8990;33.226;-97.150;2023-10-31T11:45:36;2.00;99.90
17740;DHT22;8990;33.226;-97.150;2023-10-31T11:48:10;1.70;99.90
17740;DHT22;8990;33.226;-97.150;2023-10-31T11:50:40;1.90;99.90
17740;DHT22;8990;33.226;-97.150;2023-10-31T11:53:10;1.50;99.90
17740;DHT22;8990;33.226;-97.150;2023-10-31T11:55:41;1.70;99.90
17740;DHT22;8990;33.226;-97.150;2023-10-31T11:58:18;1.90;99.90
17740;DHT22;8990;33.226;-97.150;2023-10-31T12:00:48;1.60;99.90
17740;DHT22;8990;33.226;-97.150;2023-10-31T12:03:20;1.70;99.90
17740;DHT22;8990;33.226;-97.150;2023-10-31T12:05:54;2.00;99.90
17740;DHT22;8990;33.226;-97.150;2023-10-31T12:08:30;1.80;99.90
17740;DHT22;8990;33.226;-97.150;2023-10-31T12:11:09;1.60;99.90
17740;DHT22;8990;33.226;-97.150;2023-10-31T12:13:40;1.90;99.90
17740;DHT22;8990;33.226;-97.150;2023-10-31T12:16:10;2.00;99.90
17740;DHT22;8990;33.226;-97.150;2023-10-31T12:18:41;1.70;99.90
17740;DHT22;8990;33.226;-97.150;2023-10-31T12:21:10;1.70;99.90
17740;DHT22;8990;33.226;-97.150;2023-10-31T12:23:42;1.80;99.90
17740;DHT22;8990;33.226;-97.150;2023-10-31T12:26:10;2.00;99.90
17740;DHT22;8990;33.226;-97.150;2023-10-31T12:28:40;2.10;99.90
17740;DHT22;8990;33.226;-97.150;2023-10-31T12:31:08;2.00;99.90
17740;DHT22;8990;33.226;-97.150;2023-10-31T12:33:37;2.10;99.90
17740;DHT22;8990;33.226;-97.150;2023-10-31T12:36:09;1.80;99.90
17740;DHT22;8990;33.226;-97.150;2023-10-31T12:38:38;1.30;99.90
17740;DHT22;8990;33.226;-97.150;2023-10-31T12:41:07;1.90;99.90
17740;DHT22;8990;33.226;-97.150;2023-10-31T12:43:36;1.80;99.90
17740;DHT22;8990;33.226;-97.150;2023-10-31T12:46:26;2.10;99.90
17740;DHT22;8990;33.226;-97.150;2023-10-31T12:48:56;2.20;99.90
17740;DHT22;8990;33.226;-97.150;2023-10-31T12:51:27;2.00;99.90
17740;DHT22;8990;33.226;-97.150;2023-10-31T12:53:56;2.00;99.90
17740;DHT22;8990;33.226;-97.150;2023-10-31T12:56:41;2.20;99.90
17740;DHT22;8990;33.226;-97.150;2023-10-31T12:59:10;2.40;99.90
17740;DHT22;8990;33.226;-97.150;2023-10-31T13:01:43;2.20;99.90
17740;DHT22;8990;33.226;-97.150;2023-10-31T13:04:12;2.60;99.90
17740;DHT22;8990;33.226;-97.150;2023-10-31T13:06:55;2.50;99.90
17740;DHT22;8990;33.226;-97.150;2023-10-31T13:09:28;2.40;99.90
17740;DHT22;8990;33.226;-97.150;2023-10-31T13:12:00;2.60;99.90
17740;DHT22;8990;33.226;-97.150;2023-10-31T13:14:29;2.90;99.90
17740;DHT22;8990;33.226;-97.150;2023-10-31T13:16:58;2.70;99.90
17740;DHT22;8990;33.226;-97.150;2023-10-31T13:19:28;3.00;99.90
17740;DHT22;8990;33.226;-97.150;2023-10-31T13:21:58;2.90;99.90
17740;DHT22;8990;33.226;-97.150;2023-10-31T13:24:27;3.00;99.90
17740;DHT22;8990;33.226;-97.150;2023-10-31T13:26:56;3.20;99.90
17740;DHT22;8990;33.226;-97.150;2023-10-31T13:29:25;3.30;99.90
17740;DHT22;8990;33.226;-97.150;2023-10-31T13:31:54;3.50;99.90
17740;DHT22;8990;33.226;-97.150;2023-10-31T13:34:23;3.50;99.90
17740;DHT22;8990;33.226;-97.150;2023-10-31T13:36:52;3.60;99.90
17740;DHT22;8990;33.226;-97.150;2023-10-31T13:39:22;3.80;99.90
17740;DHT22;8990;33.226;-97.150;2023-10-31T13:41:52;3.90;99.90
17740;DHT22;8990;33.226;-97.150;2023-10-31T13:44:21;4.00;99.90
17740;DHT22;8990;33.226;-97.150;2023-10-31T13:46:50;4.10;99.90
17740;DHT22;8990;33.226;-97.150;2023-10-31T13:49:18;4.30;99.90
17740;DHT22;8990;33.226;-97.150;2023-10-31T13:51:47;4.40;99.90
17740;DHT22;8990;33.226;-97.150;2023-10-31T13:54:17;4.50;99.90
17740;DHT22;8990;33.226;-97.150;2023-10-31T13:56:48;5.50;99.90
17740;DHT22;8990;33.226;-97.150;2023-10-31T13:59:17;4.70;99.90
17740;DHT22;8990;33.226;-97.150;2023-10-31T14:01:46;4.80;99.90
17740;DHT22;8990;33.226;-97.150;2023-10-31T14:04:15;4.90;99.90
17740;DHT22;8990;33.226;-97.150;2023-10-31T14:06:45;5.10;99.90
17740;DHT22;8990;33.226;-97.150;2023-10-31T14:09:13;5.20;99.90
17740;DHT22;8990;33.226;-97.150;2023-10-31T14:11:42;5.40;99.90
17740;DHT22;8990;33.226;-97.150;2023-10-31T14:14:13;5.50;99.90
17740;DHT22;8990;33.226;-97.150;2023-10-31T14:16:42;5.70;99.90
17740;DHT22;8990;33.226;-97.150;2023-10-31T14:19:12;5.80;99.90
17740;DHT22;8990;33.226;-97.150;2023-10-31T14:21:41;5.80;99.90
17740;DHT22;8990;33.226;-97.150;2023-10-31T14:24:10;6.00;99.90
17740;DHT22;8990;33.226;-97.150;2023-10-31T14:26:40;6.10;99.90
17740;DHT22;8990;33.226;-97.150;2023-10-31T14:29:12;6.30;99.90
17740;DHT22;8990;33.226;-97.150;2023-10-31T14:31:41;6.40;99.90
17740;DHT22;8990;33.226;-97.150;2023-10-31T14:34:11;6.60;99.90
17740;DHT22;8990;33.226;-97.150;2023-10-31T14:36:40;6.70;99.90
17740;DHT22;8990;33.226;-97.150;2023-10-31T14:39:09;6.80;99.90
17740;DHT22;8990;33.226;-97.150;2023-10-31T14:41:38;6.90;99.90
17740;DHT22;8990;33.226;-97.150;2023-10-31T14:44:07;7.00;99.90
17740;DHT22;8990;33.226;-97.150;2023-10-31T14:46:38;7.10;99.90
17740;DHT22;8990;33.226;-97.150;2023-10-31T14:49:07;7.30;99.90
17740;DHT22;8990;33.226;-97.150;2023-10-31T14:51:36;7.30;99.90
17740;DHT22;8990;33.226;-97.150;2023-10-31T14:54:06;7.50;99.90
17740;DHT22;8990;33.226;-97.150;2023-10-31T14:56:35;7.60;99.90
17740;DHT22;8990;33.226;-97.150;2023-10-31T14:59:04;7.70;99.90
17740;DHT22;8990;33.226;-97.150;2023-10-31T15:01:33;7.80;99.90
17740;DHT22;8990;33.226;-97.150;2023-10-31T15:04:04;7.90;99.90
17740;DHT22;8990;33.226;-97.150;2023-10-31T15:06:33;7.90;99.90
17740;DHT22;8990;33.226;-97.150;2023-10-31T15:09:03;8.10;99.90
17740;DHT22;8990;33.226;-97.150;2023-10-31T15:11:32;8.20;99.90
17740;DHT22;8990;33.226;-97.150;2023-10-31T15:14:01;8.30;99.90
17740;DHT22;8990;33.226;-97.150;2023-10-31T15:16:30;8.50;99.90
17740;DHT22;8990;33.226;-97.150;2023-10-31T15:18:59;8.50;99.90
17740;DHT22;8990;33.226;-97.150;2023-10-31T15:21:30;8.60;99.90
17740;DHT22;8990;33.226;-97.150;2023-10-31T15:23:59;8.60;99.90
17740;DHT22;8990;33.226;-97.150;2023-10-31T15:26:27;8.60;99.90
17740;DHT22;8990;33.226;-97.150;2023-10-31T15:28:56;8.60;99.90
17740;DHT22;8990;33.226;-97.150;2023-10-31T15:31:25;8.70;99.90
17740;DHT22;8990;33.226;-97.150;2023-10-31T15:33:54;8.90;99.90
17740;DHT22;8990;33.226;-97.150;2023-10-31T15:36:23;9.00;99.90
17740;DHT22;8990;33.226;-97.150;2023-10-31T15:38:53;9.00;99.90
17740;DHT22;8990;33.226;-97.150;2023-10-31T15:41:22;9.20;99.90
17740;DHT22;8990;33.226;-97.150;2023-10-31T15:43:51;9.40;99.90
17740;DHT22;8990;33.226;-97.150;2023-10-31T15:46:21;9.30;99.90